Time;durP1;ratioP1;P1;durP2;ratioP2;P2;SDS_P1;SDS_P2;PMS_P1;PMS_P2;Temp;Humidity;BMP_temperature;BMP_pressure;BME280_temperature;BME280_humidity;BME280_pressure;Samples;Min_cycle;Max_cycle;Signal;HPM_P1;HPM_P2
2021/06/21 00:00:30;;;;;;;5.80;2.78;;;22.50;86.50;;;;;;5033906;28;20381;-89
2021/06/21 00:02:56;;;;;;;6.68;3.35;;;22.40;86.40;;;;;;5025939;28;20020;-88
2021/06/21 00:05:21;;;;;;;6.15;3.47;;;22.40;86.60;;;;;;5057204;28;20035;-88
2021/06/21 00:07:48;;;;;;;6.53;3.47;;;22.30;87.20;;;;;;5026282;28;20117;-88
2021/06/21 00:10:16;;;;;;;6.55;3.40;;;22.30;87.20;;;;;;5040427;28;20047;-88
2021/06/21 00:12:44;;;;;;;5.97;3.20;;;22.20;87.30;;;;;;5040231;28;20040;-89
2021/06/21 00:15:38;;;;;;;7.38;3.55;;;22.20;87.40;;;;;;5031901;28;20120;-88
2021/06/21 00:18:04;;;;;;;6.93;3.92;;;22.10;86.90;;;;;;5019709;28;20470;-88
2021/06/21 00:20:30;;;;;;;6.80;3.67;;;22.10;87.50;;;;;;5020097;28;20033;-88
2021/06/21 00:22:56;;;;;;;6.68;3.58;;;22.00;87.70;;;;;;5021041;28;20052;-88
2021/06/21 00:25:23;;;;;;;6.30;3.72;;;22.00;87.90;;;;;;5029528;28;20525;-88
2021/06/21 00:27:49;;;;;;;6.75;3.97;;;21.90;87.60;;;;;;5020021;28;20025;-88
2021/06/21 00:30:17;;;;;;;5.25;3.58;;;21.90;87.90;;;;;;5032760;28;20056;-89
2021/06/21 00:32:44;;;;;;;7.82;4.00;;;21.90;87.70;;;;;;5035593;28;20027;-89
2021/06/21 00:35:12;;;;;;;7.75;4.03;;;21.80;87.90;;;;;;5067267;28;20467;-88
2021/06/21 00:37:38;;;;;;;6.03;3.90;;;21.80;87.50;;;;;;5035530;28;20188;-88
2021/06/21 00:40:07;;;;;;;7.10;4.18;;;21.80;87.20;;;;;;5049215;28;20470;-88
2021/06/21 00:42:39;;;;;;;8.63;4.07;;;21.70;87.40;;;;;;5019048;28;20383;-88
2021/06/21 00:45:05;;;;;;;6.22;4.45;;;21.70;87.60;;;;;;5054381;28;20554;-88
2021/06/21 00:47:31;;;;;;;7.10;4.32;;;21.60;87.70;;;;;;5055446;28;20060;-88
2021/06/21 00:49:57;;;;;;;8.65;4.43;;;21.60;87.30;;;;;;5038386;28;20055;-88
2021/06/21 00:52:22;;;;;;;8.70;5.35;;;21.50;87.00;;;;;;5015686;28;20037;-88
2021/06/21 00:54:59;;;;;;;8.15;5.43;;;21.50;86.90;;;;;;4989739;28;20060;-88
2021/06/21 00:57:29;;;;;;;7.32;5.10;;;21.40;86.90;;;;;;5050711;28;20070;-88
2021/06/21 00:59:58;;;;;;;8.48;5.03;;;21.30;87.10;;;;;;5044448;28;20022;-88
2021/06/21 01:02:25;;;;;;;7.07;5.30;;;21.20;88.00;;;;;;5051247;28;20111;-88
2021/06/21 01:04:51;;;;;;;8.63;5.30;;;21.20;88.30;;;;;;5038183;28;20120;-88
2021/06/21 01:07:17;;;;;;;7.22;5.55;;;21.10;88.80;;;;;;5037146;28;20135;-88
2021/06/21 01:09:43;;;;;;;8.32;5.35;;;21.10;89.00;;;;;;5041778;28;20052;-88
2021/06/21 01:12:29;;;;;;;7.43;5.10;;;21.00;89.20;;;;;;5054563;28;20044;-88
2021/06/21 01:15:05;;;;;;;8.48;5.90;;;21.00;89.50;;;;;;5021920;28;20033;-87
2021/06/21 01:17:47;;;;;;;8.68;5.50;;;21.00;89.30;;;;;;5034549;28;20155;-88
2021/06/21 01:20:35;;;;;;;8.30;6.20;;;20.90;89.70;;;;;;5043965;28;20029;-88
2021/06/21 01:23:35;;;;;;;8.05;5.97;;;20.90;89.80;;;;;;5040302;28;20013;-88
2021/06/21 01:26:21;;;;;;;7.10;5.47;;;20.80;90.00;;;;;;5038803;28;20051;-88
2021/06/21 01:29:07;;;;;;;7.03;5.55;;;20.80;90.10;;;;;;5069753;22;118091;-89
2021/06/21 01:32:03;;;;;;;9.35;5.88;;;20.70;90.20;;;;;;5056875;28;20047;-90
2021/06/21 01:34:30;;;;;;;9.45;5.88;;;20.70;90.40;;;;;;5044900;28;20017;-89
2021/06/21 01:37:00;;;;;;;6.45;5.40;;;20.60;90.10;;;;;;5034178;28;20041;-90
2021/06/21 01:39:29;;;;;;;7.93;5.85;;;20.60;90.20;;;;;;5041370;28;20020;-90
2021/06/21 01:42:07;;;;;;;8.85;5.80;;;20.50;90.20;;;;;;5030068;28;20561;-89
2021/06/21 01:44:36;;;;;;;9.55;5.47;;;20.50;90.20;;;;;;5073923;28;20032;-89
2021/06/21 01:47:04;;;;;;;6.50;5.07;;;20.40;90.10;;;;;;5058683;28;20027;-90
2021/06/21 01:49:35;;;;;;;8.52;5.65;;;20.40;90.20;;;;;;5028390;28;20027;-88
2021/06/21 01:52:01;;;;;;;;;;;20.30;90.20;;;;;;5059542;28;20025;-90
2021/06/21 01:54:32;;;;;;;8.25;5.28;;;20.30;90.70;;;;;;5057492;28;19916;-89
2021/06/21 01:56:58;;;;;;;;;;;20.20;90.60;;;;;;5042983;28;20021;-90
2021/06/21 01:59:29;;;;;;;5.70;4.70;;;20.20;90.50;;;;;;5057645;28;19965;-92
2021/06/21 02:01:58;;;;;;;7.53;4.80;;;20.10;90.80;;;;;;5056176;28;20021;-91
2021/06/21 02:04:26;;;;;;;6.70;5.07;;;20.10;90.90;;;;;;5041982;28;20107;-91
2021/06/21 02:06:54;;;;;;;6.35;4.43;;;20.00;90.90;;;;;;5055925;28;20035;-90
2021/06/21 02:09:25;;;;;;;6.53;4.30;;;20.00;90.90;;;;;;5041834;28;20036;-89
2021/06/21 02:11:53;;;;;;;6.32;4.38;;;19.90;91.00;;;;;;5056160;28;20131;-90
2021/06/21 02:14:26;;;;;;;6.22;4.53;;;19.90;90.90;;;;;;5023753;28;20029;-91
2021/06/21 02:16:53;;;;;;;7.00;3.97;;;19.90;90.90;;;;;;5038967;28;20021;-92
2021/06/21 02:19:23;;;;;;;7.15;4.93;;;19.80;90.90;;;;;;5020837;28;20037;-91
2021/06/21 02:21:49;;;;;;;7.75;3.70;;;19.80;91.20;;;;;;5054664;28;20036;-91
2021/06/21 02:24:17;;;;;;;6.20;4.05;;;19.70;91.10;;;;;;5068812;28;20025;-91
2021/06/21 02:26:45;;;;;;;6.72;4.00;;;19.70;91.40;;;;;;5050884;28;20032;-91
2021/06/21 02:29:11;;;;;;;6.10;3.78;;;19.70;91.50;;;;;;5038527;28;20053;-92
2021/06/21 02:31:37;;;;;;;4.68;3.80;;;19.60;91.60;;;;;;5073692;28;20009;-92
2021/06/21 02:34:03;;;;;;;5.75;3.70;;;19.60;91.60;;;;;;5070023;28;20029;-92
2021/06/21 02:36:29;;;;;;;5.53;3.47;;;19.50;91.70;;;;;;5062717;28;20071;-91
2021/06/21 02:38:57;;;;;;;5.15;3.78;;;19.40;91.80;;;;;;5059473;28;20016;-89
2021/06/21 02:41:23;;;;;;;4.57;2.92;;;19.40;91.60;;;;;;5045260;28;20023;-91
2021/06/21 02:43:48;;;;;;;4.60;3.03;;;19.40;91.90;;;;;;5059139;28;20032;-91
2021/06/21 02:46:14;;;;;;;5.38;3.28;;;19.30;92.10;;;;;;5057607;28;20091;-91
2021/06/21 02:48:40;;;;;;;5.40;3.53;;;19.30;92.20;;;;;;5046206;28;20378;-92
2021/06/21 02:51:08;;;;;;;4.40;3.20;;;19.20;92.20;;;;;;5029680;28;20025;-91
2021/06/21 02:53:56;;;;;;;4.50;3.30;;;19.20;92.30;;;;;;5059646;28;20048;-92
2021/06/21 02:56:30;;;;;;;6.75;3.35;;;19.20;92.60;;;;;;5044514;28;20025;-92
2021/06/21 02:59:11;;;;;;;4.82;2.97;;;19.10;92.60;;;;;;5048555;28;20103;-92
2021/06/21 03:01:44;;;;;;;4.05;2.90;;;19.00;92.50;;;;;;5045728;28;20025;-92
2021/06/21 03:04:20;;;;;;;4.28;2.90;;;19.00;92.70;;;;;;5059715;28;20469;-92
2021/06/21 03:06:47;;;;;;;4.20;2.80;;;18.90;92.80;;;;;;5052297;28;20397;-91
2021/06/21 03:09:16;;;;;;;3.72;2.72;;;18.90;93.00;;;;;;5035380;28;20029;-91
2021/06/21 03:11:43;;;;;;;5.07;2.72;;;18.80;93.10;;;;;;5030990;28;20540;-91
2021/06/21 03:14:10;;;;;;;5.05;2.65;;;18.80;92.80;;;;;;5045493;28;20032;-90
2021/06/21 03:16:38;;;;;;;4.47;2.55;;;18.80;92.90;;;;;;5055415;28;20107;-92
2021/06/21 03:19:04;;;;;;;4.28;2.30;;;18.60;93.20;;;;;;5042046;28;20082;-91
2021/06/21 03:21:30;;;;;;;3.47;2.35;;;18.60;93.50;;;;;;5041390;28;20021;-91
2021/06/21 03:23:56;;;;;;;4.63;2.42;;;18.50;93.50;;;;;;5042109;28;20028;-89
2021/06/21 03:26:27;;;;;;;3.53;2.25;;;18.50;93.40;;;;;;5028382;28;20083;-90
2021/06/21 03:28:54;;;;;;;4.13;2.50;;;18.40;93.50;;;;;;5043855;28;20036;-90
2021/06/21 03:31:21;;;;;;;4.07;2.55;;;18.40;93.60;;;;;;5058300;28;20051;-90
2021/06/21 03:33:47;;;;;;;3.40;2.20;;;18.30;93.60;;;;;;5023244;28;20025;-91
2021/06/21 03:36:13;;;;;;;8.45;2.22;;;18.20;94.00;;;;;;5031527;28;20371;-89
2021/06/21 03:38:39;;;;;;;6.07;2.65;;;18.20;94.10;;;;;;5027858;28;20545;-89
2021/06/21 03:41:05;;;;;;;3.38;2.17;;;18.20;94.30;;;;;;5028928;28;20377;-90
2021/06/21 03:43:33;;;;;;;5.05;2.70;;;18.10;94.40;;;;;;5036580;28;20032;-90
2021/06/21 03:46:02;;;;;;;3.30;2.40;;;18.00;94.20;;;;;;5027872;28;20013;-91
2021/06/21 03:48:29;;;;;;;3.42;2.30;;;18.00;94.60;;;;;;5046234;28;20076;-90
2021/06/21 03:50:56;;;;;;;4.55;2.45;;;18.00;94.60;;;;;;5020775;28;20048;-90
2021/06/21 03:53:25;;;;;;;4.88;2.30;;;17.90;94.70;;;;;;5037428;28;20536;-89
2021/06/21 03:55:50;;;;;;;4.50;2.50;;;17.90;94.70;;;;;;5040132;28;20028;-89
2021/06/21 03:58:17;;;;;;;3.75;2.60;;;17.90;94.90;;;;;;5057541;28;20021;-90
2021/06/21 04:00:44;;;;;;;4.25;2.20;;;17.80;94.90;;;;;;5034928;28;20029;-89
2021/06/21 04:03:09;;;;;;;4.05;2.60;;;17.80;95.10;;;;;;5020695;28;20025;-89
2021/06/21 04:05:37;;;;;;;6.07;2.40;;;17.80;95.10;;;;;;5033758;28;20436;-89
2021/06/21 04:08:08;;;;;;;5.75;2.40;;;17.70;95.20;;;;;;5060745;28;20059;-90
2021/06/21 04:10:35;;;;;;;5.28;2.50;;;17.60;95.40;;;;;;5029077;28;20025;-90
2021/06/21 04:13:01;;;;;;;4.30;2.40;;;17.60;95.40;;;;;;5020388;28;20021;-90
2021/06/21 04:15:31;;;;;;;4.20;2.38;;;17.60;95.40;;;;;;5046687;28;20021;-90
2021/06/21 04:17:58;;;;;;;5.18;2.60;;;17.50;95.50;;;;;;5022441;28;20064;-90
2021/06/21 04:20:25;;;;;;;5.05;2.33;;;17.50;95.70;;;;;;5054624;28;20024;-89
2021/06/21 04:22:51;;;;;;;4.72;2.10;;;17.50;95.70;;;;;;5039767;28;20113;-89
2021/06/21 04:25:18;;;;;;;4.80;2.30;;;17.40;95.90;;;;;;5056465;28;20025;-88
2021/06/21 04:27:44;;;;;;;4.15;2.20;;;17.40;96.10;;;;;;5023540;28;20087;-89
2021/06/21 04:30:14;;;;;;;3.13;2.10;;;17.30;96.20;;;;;;5024701;28;20061;-89
2021/06/21 04:32:39;;;;;;;3.75;2.30;;;17.30;96.30;;;;;;5030290;28;20025;-89
2021/06/21 04:35:09;;;;;;;4.97;2.10;;;17.10;96.20;;;;;;4992511;28;20100;-89
2021/06/21 04:37:35;;;;;;;2.50;2.00;;;17.10;96.50;;;;;;5026138;28;20037;-89
2021/06/21 04:40:02;;;;;;;4.22;2.20;;;17.10;96.60;;;;;;5020153;28;20021;-89
2021/06/21 04:42:28;;;;;;;3.97;2.25;;;17.00;96.80;;;;;;5021151;28;20112;-90
2021/06/21 04:44:54;;;;;;;3.65;2.28;;;17.00;97.00;;;;;;5005326;28;20026;-90
2021/06/21 04:47:23;;;;;;;3.15;2.00;;;16.90;97.10;;;;;;4997763;28;20030;-90
2021/06/21 04:49:53;;;;;;;7.18;2.22;;;16.90;97.10;;;;;;5037953;28;20560;-89
2021/06/21 04:52:22;;;;;;;2.85;1.90;;;16.80;97.10;;;;;;5019021;28;20618;-89
2021/06/21 04:54:48;;;;;;;3.78;2.20;;;16.80;97.40;;;;;;5000173;28;20368;-90
2021/06/21 04:57:14;;;;;;;4.05;2.08;;;16.80;97.40;;;;;;5016050;28;20459;-89
2021/06/21 04:59:40;;;;;;;2.28;1.92;;;16.80;97.40;;;;;;4999951;28;20467;-90
2021/06/21 05:02:06;;;;;;;4.07;2.30;;;16.70;97.40;;;;;;4999569;28;20036;-89
2021/06/21 05:04:31;;;;;;;3.80;2.08;;;16.70;97.30;;;;;;5011623;28;20032;-89
2021/06/21 05:06:57;;;;;;;3.13;2.00;;;16.70;97.50;;;;;;4999683;28;20124;-89
2021/06/21 05:09:23;;;;;;;3.90;1.98;;;16.70;97.70;;;;;;4983563;28;20521;-89
2021/06/21 05:11:48;;;;;;;4.18;2.13;;;16.70;97.70;;;;;;5030287;28;20021;-89
2021/06/21 05:14:14;;;;;;;3.75;2.22;;;16.60;97.70;;;;;;4983443;28;20029;-89
2021/06/21 05:16:40;;;;;;;2.63;1.73;;;16.60;97.80;;;;;;4999803;28;20032;-90
2021/06/21 05:19:06;;;;;;;2.65;1.73;;;16.60;97.90;;;;;;4983837;28;20471;-88
2021/06/21 05:21:33;;;;;;;5.47;1.50;;;16.60;97.80;;;;;;5009309;28;20491;-89
2021/06/21 05:24:00;;;;;;;2.88;1.70;;;16.60;97.90;;;;;;4999580;28;20072;-89
2021/06/21 05:26:25;;;;;;;2.35;1.70;;;16.60;98.00;;;;;;4999419;28;20533;-90
2021/06/21 05:28:51;;;;;;;2.50;1.40;;;16.60;97.90;;;;;;4983122;28;20030;-89
2021/06/21 05:31:17;;;;;;;3.05;1.50;;;16.60;97.90;;;;;;4960140;28;20034;-90
2021/06/21 05:33:43;;;;;;;2.08;1.45;;;16.60;98.00;;;;;;5023665;28;20029;-89
2021/06/21 05:36:09;;;;;;;2.67;1.60;;;16.60;98.10;;;;;;4999076;28;20033;-90
2021/06/21 05:38:35;;;;;;;4.60;1.65;;;16.50;98.10;;;;;;4983491;28;20022;-90
2021/06/21 05:41:01;;;;;;;2.33;1.30;;;16.50;98.10;;;;;;4992318;28;20034;-90
2021/06/21 05:43:27;;;;;;;2.15;1.50;;;16.50;98.00;;;;;;4960793;28;20022;-90
2021/06/21 05:45:53;;;;;;;1.63;1.23;;;16.50;98.00;;;;;;4965190;28;20063;-90
2021/06/21 05:48:19;;;;;;;4.72;1.50;;;16.50;98.00;;;;;;4997102;28;20732;-89
2021/06/21 05:50:45;;;;;;;2.25;1.77;;;16.40;98.00;;;;;;4996515;28;20132;-90
2021/06/21 05:53:10;;;;;;;2.60;1.40;;;16.50;98.20;;;;;;4996435;28;20061;-90
2021/06/21 05:55:36;;;;;;;1.60;1.27;;;16.40;98.20;;;;;;5012405;28;20476;-89
2021/06/21 05:58:02;;;;;;;4.28;1.40;;;16.40;98.10;;;;;;4999604;28;20075;-90
2021/06/21 06:00:28;;;;;;;3.22;1.50;;;16.40;98.20;;;;;;5012654;28;20014;-90
2021/06/21 06:02:54;;;;;;;5.60;1.40;;;16.40;98.20;;;;;;4995957;28;20125;-89
2021/06/21 06:05:20;;;;;;;3.05;1.40;;;16.40;98.30;;;;;;4995619;28;20423;-89
2021/06/21 06:07:46;;;;;;;1.63;1.40;;;16.40;98.40;;;;;;4989202;28;20457;-90
2021/06/21 06:10:13;;;;;;;2.55;1.42;;;16.40;98.40;;;;;;4997402;28;20121;-89
2021/06/21 06:12:39;;;;;;;2.30;1.30;;;16.40;98.70;;;;;;5014652;28;20441;-89
2021/06/21 06:15:05;;;;;;;1.98;1.20;;;16.40;98.40;;;;;;4981393;28;20027;-89
2021/06/21 06:17:31;;;;;;;2.50;1.40;;;16.40;98.40;;;;;;5015145;28;20030;-88
2021/06/21 06:19:57;;;;;;;2.67;1.42;;;16.40;98.40;;;;;;4989728;28;20468;-89
2021/06/21 06:22:22;;;;;;;3.00;1.48;;;16.40;98.50;;;;;;5000651;28;20033;-88
2021/06/21 06:24:48;;;;;;;1.20;1.10;;;16.40;98.50;;;;;;5016635;28;20081;-88
2021/06/21 06:27:14;;;;;;;5.18;1.80;;;16.40;98.40;;;;;;5003168;28;20792;-88
2021/06/21 06:29:40;;;;;;;5.80;1.70;;;16.40;98.50;;;;;;5007178;28;20514;-89
2021/06/21 06:32:07;;;;;;;4.30;1.30;;;16.40;98.50;;;;;;5019176;28;20022;-87
2021/06/21 06:34:33;;;;;;;3.72;1.42;;;16.30;98.50;;;;;;5008182;28;20034;-88
2021/06/21 06:37:00;;;;;;;3.97;1.80;;;16.30;98.50;;;;;;5016028;28;20156;-89
2021/06/21 06:39:25;;;;;;;2.25;1.10;;;16.30;98.50;;;;;;5028525;28;20074;-89
2021/06/21 06:41:52;;;;;;;1.50;1.20;;;16.30;98.50;;;;;;5024819;28;20080;-89
2021/06/21 06:44:18;;;;;;;2.58;1.30;;;16.30;98.50;;;;;;5011948;28;20140;-89
2021/06/21 06:46:43;;;;;;;4.93;1.33;;;16.30;98.60;;;;;;5031769;28;20056;-89
2021/06/21 06:49:09;;;;;;;3.55;1.10;;;16.30;98.70;;;;;;5002941;28;20057;-89
2021/06/21 06:51:42;;;;;;;1.33;1.20;;;16.30;98.70;;;;;;5002685;28;20065;-89
2021/06/21 06:56:59;;;;;;;2.97;1.23;;;16.20;98.70;;;;;;5048561;28;20061;-89
2021/06/21 06:59:26;;;;;;;4.80;2.47;;;16.20;98.70;;;;;;5018834;28;20446;-89
2021/06/21 07:01:52;;;;;;;1.50;1.10;;;16.20;98.80;;;;;;5014598;28;20017;-88
2021/06/21 07:04:18;;;;;;;1.33;1.10;;;16.20;98.80;;;;;;5027266;28;20056;-88
2021/06/21 07:06:43;;;;;;;2.45;0.98;;;16.20;98.90;;;;;;5028721;28;20026;-89
2021/06/21 07:09:09;;;;;;;2.08;1.30;;;16.20;98.90;;;;;;4989917;28;20433;-88
2021/06/21 07:11:36;;;;;;;1.77;1.20;;;16.20;99.00;;;;;;5009770;28;20032;-88
2021/06/21 07:14:03;;;;;;;2.38;1.23;;;16.20;99.00;;;;;;4992663;28;20036;-88
2021/06/21 07:16:29;;;;;;;2.03;1.30;;;16.20;98.90;;;;;;5001568;28;20038;-89
2021/06/21 07:18:55;;;;;;;2.80;1.88;;;16.20;98.90;;;;;;4992855;28;20356;-89
2021/06/21 07:21:21;;;;;;;2.50;1.35;;;16.10;98.90;;;;;;5022618;28;20022;-89
2021/06/21 07:23:46;;;;;;;2.63;1.30;;;16.20;99.00;;;;;;5023437;28;20025;-89
2021/06/21 07:26:12;;;;;;;2.38;1.10;;;16.20;99.00;;;;;;5020452;28;20041;-89
2021/06/21 07:28:38;;;;;;;2.03;1.20;;;16.10;99.00;;;;;;5032615;23;20047;-85
2021/06/21 07:31:04;;;;;;;2.15;1.13;;;16.20;99.10;;;;;;5057529;28;20357;-85
2021/06/21 07:33:31;;;;;;;1.73;1.38;;;16.10;99.40;;;;;;5109068;28;20469;-85
2021/06/21 07:35:57;;;;;;;1.40;1.30;;;16.10;99.20;;;;;;5115174;28;20054;-86
2021/06/21 07:38:23;;;;;;;1.95;1.30;;;16.20;99.20;;;;;;5082105;28;20031;-86
2021/06/21 07:40:49;;;;;;;2.22;1.63;;;16.10;99.10;;;;;;5080824;28;20106;-85
2021/06/21 07:43:15;;;;;;;2.30;1.60;;;16.10;99.10;;;;;;5097178;28;20020;-85
2021/06/21 07:45:42;;;;;;;1.60;1.20;;;16.10;99.20;;;;;;5086409;28;20027;-85
2021/06/21 07:48:08;;;;;;;1.55;1.30;;;16.10;99.20;;;;;;5072327;28;20028;-85
2021/06/21 07:50:34;;;;;;;3.40;1.20;;;16.20;99.30;;;;;;5115622;28;20042;-85
2021/06/21 07:53:02;;;;;;;1.58;1.35;;;16.20;99.30;;;;;;5077987;28;20023;-85
2021/06/21 07:55:28;;;;;;;2.80;1.60;;;16.20;99.30;;;;;;5078335;28;20036;-85
2021/06/21 07:57:57;;;;;;;2.03;1.50;;;16.20;99.30;;;;;;5092619;28;20016;-85
2021/06/21 08:00:26;;;;;;;1.80;1.48;;;16.20;99.30;;;;;;5094145;28;20028;-85
2021/06/21 08:02:53;;;;;;;1.92;1.55;;;16.20;99.30;;;;;;5097179;28;20058;-85
2021/06/21 08:05:19;;;;;;;2.38;1.30;;;16.20;99.40;;;;;;5080659;28;20028;-85
2021/06/21 08:07:46;;;;;;;1.77;1.50;;;16.20;99.30;;;;;;5070276;28;20073;-85
2021/06/21 08:10:12;;;;;;;1.48;1.38;;;16.10;99.30;;;;;;5073941;28;20362;-86
2021/06/21 08:12:38;;;;;;;1.50;1.40;;;16.20;99.40;;;;;;5079533;28;20145;-85
2021/06/21 08:15:06;;;;;;;1.90;1.70;;;16.20;99.50;;;;;;5096996;28;20028;-86
2021/06/21 08:17:32;;;;;;;2.50;1.58;;;16.20;99.50;;;;;;5089881;28;20024;-86
2021/06/21 08:19:58;;;;;;;3.13;1.67;;;16.20;99.40;;;;;;5082671;28;20019;-86
2021/06/21 08:22:23;;;;;;;1.75;1.60;;;16.20;99.40;;;;;;5096704;28;20035;-85
2021/06/21 08:24:50;;;;;;;2.83;1.52;;;16.20;99.50;;;;;;5080065;28;20111;-86
2021/06/21 08:27:17;;;;;;;1.85;1.60;;;16.20;99.50;;;;;;5096433;28;20023;-86
2021/06/21 08:29:43;;;;;;;2.22;1.60;;;16.20;99.50;;;;;;5079466;28;20079;-86
2021/06/21 08:32:09;;;;;;;2.78;1.52;;;16.20;99.50;;;;;;5076872;28;20023;-85
2021/06/21 08:34:35;;;;;;;1.70;1.50;;;16.20;99.50;;;;;;5047909;28;20024;-86
2021/06/21 08:37:01;;;;;;;5.20;1.63;;;16.20;99.60;;;;;;5089631;28;20028;-85
2021/06/21 08:39:27;;;;;;;1.98;1.70;;;16.20;99.60;;;;;;5082589;28;20049;-86
2021/06/21 08:41:57;;;;;;;2.08;1.60;;;16.20;99.60;;;;;;5058873;28;20024;-85
2021/06/21 08:44:23;;;;;;;1.83;1.63;;;16.20;99.70;;;;;;5091600;28;20024;-86
2021/06/21 08:46:50;;;;;;;2.90;1.77;;;16.20;99.70;;;;;;5081537;27;20119;-86
2021/06/21 08:49:18;;;;;;;2.42;1.90;;;16.20;99.70;;;;;;5094692;27;20034;-86
2021/06/21 08:51:43;;;;;;;5.15;1.95;;;16.20;99.70;;;;;;5085232;28;20111;-86
2021/06/21 08:54:09;;;;;;;3.25;1.90;;;16.20;99.90;;;;;;5095079;27;20118;-86
2021/06/21 08:56:35;;;;;;;2.13;1.88;;;16.20;99.70;;;;;;5116337;27;20132;-86
2021/06/21 08:59:07;;;;;;;3.25;1.98;;;16.20;99.70;;;;;;5081935;28;20028;-86
2021/06/21 09:01:38;;;;;;;2.45;1.50;;;16.20;99.70;;;;;;5082008;28;20028;-86
2021/06/21 09:04:09;;;;;;;2.40;1.60;;;16.20;99.70;;;;;;5112716;28;20069;-85
2021/06/21 09:06:38;;;;;;;2.97;1.80;;;16.20;99.80;;;;;;5075505;28;20032;-86
2021/06/21 09:09:05;;;;;;;1.73;1.60;;;16.20;99.80;;;;;;5086900;28;20057;-86
2021/06/21 09:11:46;;;;;;;2.35;1.80;;;16.20;99.80;;;;;;5078675;28;20073;-86
2021/06/21 09:14:30;;;;;;;2.00;1.80;;;16.20;99.80;;;;;;5101997;28;20032;-86
2021/06/21 09:17:05;;;;;;;2.85;1.83;;;16.20;99.80;;;;;;5095738;28;20016;-86
2021/06/21 09:19:42;;;;;;;2.28;1.50;;;16.20;99.80;;;;;;5081280;28;20017;-85
2021/06/21 09:22:31;;;;;;;4.32;2.08;;;16.20;99.80;;;;;;5080786;28;20353;-86
2021/06/21 09:25:21;;;;;;;1.83;1.65;;;16.20;99.80;;;;;;5095513;28;20019;-86
2021/06/21 09:28:13;;;;;;;3.67;1.65;;;16.20;99.90;;;;;;5094926;28;20024;-86
2021/06/21 09:30:50;;;;;;;1.98;1.63;;;16.20;99.90;;;;;;5064087;28;20452;-86
2021/06/21 09:33:29;;;;;;;2.53;1.40;;;16.20;99.90;;;;;;5094187;28;20074;-86
2021/06/21 09:35:55;;;;;;;2.13;1.33;;;16.20;99.90;;;;;;5085915;28;20030;-86
2021/06/21 09:38:21;;;;;;;1.70;1.38;;;16.20;99.90;;;;;;5108848;28;20107;-86
2021/06/21 09:40:50;;;;;;;3.08;1.60;;;16.20;99.90;;;;;;5078835;28;20020;-86
2021/06/21 09:43:22;;;;;;;2.13;1.60;;;16.20;99.90;;;;;;5095311;28;20012;-86
2021/06/21 09:46:14;;;;;;;2.55;1.70;;;16.20;99.90;;;;;;5113606;28;20059;-86
2021/06/21 09:48:45;;;;;;;2.40;1.65;;;16.20;99.90;;;;;;5095669;28;20480;-86
2021/06/21 09:51:24;;;;;;;2.65;1.60;;;16.20;99.90;;;;;;5095210;28;20027;-86
2021/06/21 09:54:03;;;;;;;2.72;1.70;;;16.20;99.90;;;;;;5095539;28;20124;-86
2021/06/21 09:56:54;;;;;;;3.20;1.80;;;16.30;99.90;;;;;;5102156;28;20032;-86
2021/06/21 09:59:24;;;;;;;2.38;1.55;;;16.30;99.90;;;;;;5092338;28;20027;-86
2021/06/21 10:02:05;;;;;;;1.52;1.27;;;16.30;99.90;;;;;;5080370;28;20023;-86
2021/06/21 10:04:32;;;;;;;2.08;1.80;;;16.30;99.90;;;;;;5094943;28;20057;-86
2021/06/21 10:07:00;;;;;;;2.15;1.60;;;16.30;99.90;;;;;;5082557;28;20036;-86
2021/06/21 10:09:27;;;;;;;2.00;1.50;;;16.30;99.90;;;;;;5092263;28;20035;-86
2021/06/21 10:11:52;;;;;;;2.97;1.73;;;16.30;99.90;;;;;;5092554;28;20508;-87
2021/06/21 10:14:20;;;;;;;2.00;1.58;;;16.30;99.90;;;;;;5094730;28;20028;-86
2021/06/21 10:16:49;;;;;;;1.60;1.50;;;16.40;99.90;;;;;;5095511;28;20020;-87
2021/06/21 10:19:16;;;;;;;2.38;1.88;;;16.40;99.90;;;;;;5095478;28;20028;-86
2021/06/21 10:21:48;;;;;;;3.22;1.55;;;16.40;99.90;;;;;;5094921;28;20027;-87
2021/06/21 10:24:14;;;;;;;1.80;1.65;;;16.40;99.90;;;;;;5095401;28;20023;-87
2021/06/21 10:26:49;;;;;;;3.38;2.13;;;16.40;99.90;;;;;;5095109;28;20020;-86
2021/06/21 10:29:15;;;;;;;2.17;1.80;;;16.40;99.90;;;;;;5095206;28;20050;-86
2021/06/21 10:31:43;;;;;;;2.22;1.90;;;16.40;99.90;;;;;;5094783;28;20123;-87
2021/06/21 10:34:08;;;;;;;2.00;1.80;;;16.40;99.90;;;;;;5095020;28;20047;-87
2021/06/21 10:36:46;;;;;;;3.22;2.10;;;16.50;99.90;;;;;;5078416;28;20066;-86
2021/06/21 10:39:18;;;;;;;2.30;1.42;;;16.50;99.90;;;;;;5095439;28;20587;-86
2021/06/21 10:42:06;;;;;;;1.63;1.40;;;16.50;99.90;;;;;;5095367;28;20034;-86
2021/06/21 10:44:50;;;;;;;1.20;1.10;;;16.50;99.90;;;;;;5113652;28;20031;-87
2021/06/21 10:47:36;;;;;;;2.50;1.30;;;16.50;99.90;;;;;;5095549;28;20388;-86
2021/06/21 10:50:05;;;;;;;1.98;1.52;;;16.50;99.90;;;;;;5113248;28;20031;-86
2021/06/21 10:52:37;;;;;;;1.42;1.30;;;16.50;99.90;;;;;;5095180;28;20035;-86
2021/06/21 10:55:34;;;;;;;1.30;1.20;;;16.50;99.90;;;;;;5095289;28;20043;-86
2021/06/21 10:58:08;;;;;;;1.60;1.30;;;16.50;99.90;;;;;;5112983;28;20107;-85
2021/06/21 11:00:43;;;;;;;1.98;1.60;;;16.50;99.90;;;;;;5097356;28;20015;-85
2021/06/21 11:03:34;;;;;;;1.40;1.30;;;16.50;99.90;;;;;;5098585;28;20019;-86
2021/06/21 11:06:19;;;;;;;2.03;1.40;;;16.50;99.90;;;;;;5114962;28;20028;-85
2021/06/21 11:08:54;;;;;;;1.33;1.23;;;16.60;99.90;;;;;;5096742;28;20046;-86
2021/06/21 11:11:35;;;;;;;2.15;1.40;;;16.60;99.90;;;;;;5098636;28;20028;-86
2021/06/21 11:14:14;;;;;;;;;;;16.60;99.90;;;;;;5116966;28;20030;-86
2021/06/21 11:16:42;;;;;;;2.10;1.60;;;16.60;99.90;;;;;;5115485;28;19915;-86
2021/06/21 11:19:16;;;;;;;2.05;1.80;;;16.60;99.90;;;;;;5080654;28;20020;-86
2021/06/21 11:21:56;;;;;;;1.95;1.60;;;16.60;99.90;;;;;;5115153;28;20024;-86
2021/06/21 11:24:42;;;;;;;2.85;1.73;;;16.60;99.90;;;;;;5098540;28;20020;-86
2021/06/21 11:27:20;;;;;;;2.30;1.60;;;16.70;99.90;;;;;;5098556;28;20043;-86
2021/06/21 11:29:58;;;;;;;2.22;1.80;;;16.70;99.90;;;;;;5115752;28;20077;-86
2021/06/21 11:32:25;;;;;;;3.03;1.80;;;16.70;99.90;;;;;;5098016;28;20023;-86
2021/06/21 11:34:55;;;;;;;3.00;1.70;;;16.70;99.90;;;;;;5115080;28;20130;-86
2021/06/21 11:37:41;;;;;;;2.67;1.93;;;16.70;99.90;;;;;;5097457;28;20081;-85
2021/06/21 11:40:16;;;;;;;2.35;1.80;;;16.80;99.90;;;;;;5080591;28;20044;-86
2021/06/21 11:43:03;;;;;;;2.15;1.70;;;16.80;99.90;;;;;;5114348;28;20023;-86
2021/06/21 11:45:58;;;;;;;2.47;1.73;;;16.80;99.90;;;;;;5115813;28;20520;-87
2021/06/21 11:48:31;;;;;;;2.75;2.17;;;16.80;99.90;;;;;;5097156;28;20051;-86
2021/06/21 11:51:02;;;;;;;2.80;1.77;;;16.80;99.90;;;;;;5097861;28;20020;-86
2021/06/21 11:53:29;;;;;;;2.47;2.10;;;16.80;99.90;;;;;;5097738;28;20020;-86
2021/06/21 11:55:56;;;;;;;1.98;1.73;;;16.80;99.90;;;;;;5080951;28;20431;-86
2021/06/21 11:58:40;;;;;;;1.90;1.70;;;16.80;99.90;;;;;;5115869;28;20020;-85
2021/06/21 12:01:24;;;;;;;2.38;2.08;;;16.90;99.90;;;;;;5097394;28;20023;-86
2021/06/21 12:03:58;;;;;;;2.30;1.90;;;16.90;99.90;;;;;;5097250;28;20023;-86
2021/06/21 12:06:25;;;;;;;2.67;2.05;;;16.90;99.90;;;;;;5115603;28;20498;-86
2021/06/21 12:08:51;;;;;;;2.10;1.90;;;16.90;99.90;;;;;;5097463;28;20032;-87
2021/06/21 12:11:25;;;;;;;2.28;2.00;;;17.00;99.90;;;;;;5079443;28;20039;-86
2021/06/21 12:14:03;;;;;;;2.67;2.35;;;17.00;99.90;;;;;;5116151;28;20031;-86
2021/06/21 12:16:30;;;;;;;3.00;2.30;;;17.00;99.90;;;;;;5097483;28;20469;-85
2021/06/21 12:18:59;;;;;;;3.13;2.38;;;17.00;99.90;;;;;;5097242;28;20024;-87
2021/06/21 12:21:30;;;;;;;2.95;2.03;;;17.10;99.90;;;;;;5097193;28;20111;-87
2021/06/21 12:23:55;;;;;;;;;;;17.10;99.90;;;;;;5114113;28;20020;-86
2021/06/21 12:26:21;;;;;;;2.53;1.95;;;17.10;99.90;;;;;;5080448;28;19940;-86
2021/06/21 12:28:47;;;;;;;3.22;2.50;;;17.10;99.90;;;;;;5080527;28;20027;-87
2021/06/21 12:31:16;;;;;;;3.42;2.53;;;17.20;99.90;;;;;;5080055;28;20140;-86
2021/06/21 12:33:43;;;;;;;2.70;2.50;;;17.20;99.90;;;;;;5080892;28;20046;-86
2021/06/21 12:36:28;;;;;;;3.42;2.40;;;17.20;99.90;;;;;;5080395;28;20031;-88
2021/06/21 12:39:01;;;;;;;3.38;2.60;;;17.20;99.90;;;;;;5081134;28;20100;-86
2021/06/21 12:41:36;;;;;;;2.50;2.30;;;17.10;99.90;;;;;;5097090;28;20016;-87
2021/06/21 12:44:11;;;;;;;3.00;2.22;;;17.10;99.90;;;;;;5097019;28;20484;-87
2021/06/21 12:46:46;;;;;;;2.80;2.20;;;17.10;99.90;;;;;;5097049;28;20051;-86
2021/06/21 12:49:18;;;;;;;3.97;2.35;;;17.20;99.90;;;;;;5096812;28;20024;-87
2021/06/21 12:51:45;;;;;;;3.70;2.25;;;17.20;99.90;;;;;;5096718;28;20026;-87
2021/06/21 12:54:18;;;;;;;2.47;2.28;;;17.20;99.90;;;;;;5096961;28;20032;-87
2021/06/21 12:56:48;;;;;;;3.80;2.92;;;17.20;99.90;;;;;;5080574;28;20034;-86
2021/06/21 12:59:31;;;;;;;3.03;2.72;;;17.20;99.90;;;;;;5096608;28;20033;-88
2021/06/21 13:01:58;;;;;;;4.13;2.80;;;17.20;99.90;;;;;;5113518;28;20465;-86
2021/06/21 13:04:24;;;;;;;3.72;2.90;;;17.20;99.90;;;;;;5096793;28;20078;-87